Time;durP1;ratioP1;P1;durP2;ratioP2;P2;SDS_P1;SDS_P2;PMS_P1;PMS_P2;Temp;Humidity;BMP_temperature;BMP_pressure;BME280_temperature;BME280_humidity;BME280_pressure;Samples;Min_cycle;Max_cycle;Signal;HPM_P1;HPM_P2
2024/03/22 00:01:22;;;;;;;3.43;2.90;;;;;;;5.95;57.86;96553.63;5094001;28;20273;-83
2024/03/22 00:03:50;;;;;;;3.10;2.80;;;;;;;5.74;58.34;96555.34;5113228;28;20199;-84
2024/03/22 00:06:16;;;;;;;3.17;2.30;;;;;;;5.94;58.06;96557.31;5113041;28;20582;-83
2024/03/22 00:08:44;;;;;;;2.57;2.30;;;;;;;5.91;57.59;96555.16;5078124;28;20207;-85
2024/03/22 00:11:20;;;;;;;2.47;2.27;;;;;;;5.98;57.31;96539.91;5114615;28;20192;-83
2024/03/22 00:13:51;;;;;;;2.70;2.47;;;;;;;6.13;56.13;96550.53;5107566;28;20206;-85
2024/03/22 00:16:20;;;;;;;3.23;2.90;;;;;;;6.05;56.34;96552.88;5095243;28;20252;-85
2024/03/22 00:21:36;;;;;;;3.00;2.80;;;;;;;6.08;56.37;96544.44;5113808;28;20282;-84
2024/03/22 00:24:04;;;;;;;2.90;2.70;;;;;;;5.96;55.96;96549.91;5112883;28;20203;-86
2024/03/22 00:26:33;;;;;;;2.23;1.90;;;;;;;5.94;56.05;96549.38;5112544;28;20252;-85
2024/03/22 00:29:00;;;;;;;3.27;2.43;;;;;;;5.92;56.07;96538.28;5095170;28;20684;-86
2024/03/22 00:31:33;;;;;;;3.40;3.10;;;;;;;5.83;56.24;96526.59;5113523;28;20209;-86
2024/03/22 00:34:14;;;;;;;2.70;2.50;;;;;;;5.83;56.39;96555.63;5095882;28;20211;-84
2024/03/22 00:36:43;;;;;;;3.40;2.77;;;;;;;5.66;56.34;96537.34;5094553;28;20219;-84
2024/03/22 00:39:09;;;;;;;1.43;1.33;;;;;;;5.73;55.73;96555.56;5112795;28;20195;-84
2024/03/22 00:41:37;;;;;;;2.30;1.60;;;;;;;5.63;56.04;96546.56;5112084;28;20618;-84
2024/03/22 00:44:19;;;;;;;2.63;1.90;;;;;;;5.55;55.92;96548.88;5113337;28;20184;-85
2024/03/22 00:46:49;;;;;;;1.47;1.37;;;;;;;5.64;56.16;96549.97;5110780;28;20202;-87
2024/03/22 00:49:38;;;;;;;1.87;1.77;;;;;;;5.86;55.01;96555.13;5111766;28;20654;-85
2024/03/22 00:52:06;;;;;;;1.60;1.50;;;;;;;5.64;55.22;96553.41;5112159;28;20199;-85
2024/03/22 00:54:47;;;;;;;2.10;1.90;;;;;;;5.79;54.82;96552.72;5111924;28;20198;-87
2024/03/22 00:57:17;;;;;;;1.60;1.50;;;;;;;5.55;55.18;96552.31;5099977;28;20248;-85
2024/03/22 00:59:52;;;;;;;1.63;1.53;;;;;;;5.69;55.05;96547.38;5094959;28;20199;-86
2024/03/22 01:02:20;;;;;;;1.60;1.50;;;;;;;5.46;54.80;96530.09;5112427;28;20230;-86
2024/03/22 01:05:00;;;;;;;1.80;1.70;;;;;;;5.15;55.29;96545.69;5112263;28;20204;-86
2024/03/22 01:07:32;;;;;;;1.50;1.40;;;;;;;4.99;55.09;96508.88;5112873;28;20200;-85
2024/03/22 01:12:53;;;;;;;1.80;1.70;;;;;;;5.29;55.39;96547.91;5111333;28;20742;-85
2024/03/22 01:15:21;;;;;;;1.80;1.70;;;;;;;5.34;54.95;96543.47;5112767;28;20187;-85
2024/03/22 01:17:48;;;;;;;3.73;1.60;;;;;;;5.46;54.41;96539.81;5092615;28;20286;-86
2024/03/22 01:20:46;;;;;;;1.57;1.47;;;;;;;5.13;54.94;96539.88;5093591;28;20199;-86
2024/03/22 01:23:15;;;;;;;2.00;1.90;;;;;;;5.23;55.84;96538.38;5112176;28;20250;-86
2024/03/22 01:25:49;;;;;;;3.23;2.30;;;;;;;5.40;54.74;96545.09;5094462;28;20200;-86
2024/03/22 01:28:18;;;;;;;170.93;73.30;;;;;;;5.39;55.01;96524.22;5111897;28;20226;-86
2024/03/22 01:30:48;;;;;;;52.00;24.60;;;;;;;5.41;54.14;96532.69;5094353;28;20200;-86
2024/03/22 01:33:41;;;;;;;7.33;4.23;;;;;;;5.40;55.01;96536.38;5094506;28;20252;-83
2024/03/22 01:36:13;;;;;;;4.33;3.27;;;;;;;5.17;54.88;96539.38;5110761;28;20276;-83
2024/03/22 01:38:44;;;;;;;3.37;2.30;;;;;;;5.03;54.69;96517.88;5112633;28;20191;-83
2024/03/22 01:41:12;;;;;;;2.27;2.07;;;;;;;5.16;55.07;96546.50;5093830;28;20221;-83
2024/03/22 01:43:47;;;;;;;1.77;1.60;;;;;;;5.18;54.63;96539.09;5111283;28;20279;-85
2024/03/22 01:46:16;;;;;;;2.23;2.03;;;;;;;5.24;53.83;96534.69;5111013;28;20206;-85
2024/03/22 01:48:49;;;;;;;1.77;1.60;;;;;;;5.27;53.78;96542.09;5111873;28;20207;-85
2024/03/22 01:51:20;;;;;;;1.40;1.30;;;;;;;5.20;53.73;96539.66;5111765;28;20199;-84
2024/03/22 01:53:50;;;;;;;1.53;1.43;;;;;;;5.11;54.15;96512.97;5093795;28;20199;-85
2024/03/22 01:56:27;;;;;;;2.07;1.90;;;;;;;5.18;54.21;96527.75;5111648;28;20204;-85
2024/03/22 01:58:56;;;;;;;2.07;1.83;;;;;;;5.08;54.44;96550.38;5111836;28;20199;-85
2024/03/22 02:01:39;;;;;;;1.80;1.70;;;;;;;4.56;53.95;96463.19;5111610;28;20210;-85
2024/03/22 02:04:15;;;;;;;1.60;1.50;;;;;;;5.08;53.86;96542.47;5093615;28;20237;-85
2024/03/22 02:07:08;;;;;;;1.83;1.73;;;;;;;5.00;54.43;96535.03;5112232;28;20195;-86
2024/03/22 02:13:02;;;;;;;2.13;1.50;;;;;;;4.83;54.16;96536.97;5110129;28;20639;-86
2024/03/22 02:15:36;;;;;;;3.63;1.80;;;;;;;4.90;53.92;96543.63;5111443;28;20207;-86
2024/03/22 02:18:09;;;;;;;1.73;1.63;;;;;;;4.94;54.45;96538.66;5111531;28;20206;-85
2024/03/22 02:20:41;;;;;;;2.00;1.83;;;;;;;4.86;54.31;96531.19;5111652;28;20211;-85
2024/03/22 02:23:16;;;;;;;1.60;1.50;;;;;;;4.80;53.98;96548.00;5111199;28;20228;-85
2024/03/22 02:26:15;;;;;;;2.60;1.90;;;;;;;4.74;54.45;96538.47;5093584;28;20195;-85
2024/03/22 02:29:13;;;;;;;2.17;1.97;;;;;;;4.76;55.05;96541.66;5109214;28;20234;-85
2024/03/22 02:31:51;;;;;;;2.30;2.10;;;;;;;4.57;55.13;96543.84;5097285;28;20199;-85
2024/03/22 02:34:20;;;;;;;1.60;1.50;;;;;;;4.44;55.80;96550.31;5115195;28;20199;-86
2024/03/22 02:37:19;;;;;;;1.53;1.40;;;;;;;4.50;55.50;96544.06;5111088;28;20284;-85
2024/03/22 02:39:55;;;;;;;1.77;1.60;;;;;;;4.37;55.13;96518.06;5115402;28;20201;-85
2024/03/22 02:42:46;;;;;;;1.97;1.83;;;;;;;4.21;55.97;96526.88;5115391;28;20738;-85
2024/03/22 02:45:16;;;;;;;1.80;1.70;;;;;;;4.29;55.97;96535.13;5116079;28;20195;-84
2024/03/22 02:47:59;;;;;;;2.10;1.80;;;;;;;4.33;55.82;96538.84;5114196;28;20331;-85
2024/03/22 02:50:32;;;;;;;3.10;2.17;;;;;;;4.28;55.78;96527.47;5113692;28;20199;-84
2024/03/22 02:53:04;;;;;;;2.40;2.20;;;;;;;4.37;55.27;96533.88;5114891;28;20204;-84
2024/03/22 02:55:48;;;;;;;2.20;1.90;;;;;;;4.27;55.36;96539.84;5096926;28;20235;-84
2024/03/22 02:58:32;;;;;;;2.33;2.13;;;;;;;4.27;56.01;96536.44;5111682;28;20757;-84
2024/03/22 03:01:22;;;;;;;2.17;1.97;;;;;;;4.18;55.59;96528.13;5114700;28;20229;-84
2024/03/22 03:03:58;;;;;;;2.50;2.07;;;;;;;3.99;55.61;96511.88;5114961;28;20325;-85
2024/03/22 03:06:30;;;;;;;2.33;2.13;;;;;;;4.17;56.00;96537.09;5115148;28;20551;-84
2024/03/22 03:15:08;;;;;;;1.80;1.70;;;;;;;4.00;55.02;96523.22;5113440;28;20450;-84
2024/03/22 03:17:43;;;;;;;2.60;2.07;;;;;;;3.98;55.14;96527.91;5114296;28;20549;-86
2024/03/22 03:20:14;;;;;;;2.43;2.23;;;;;;;4.02;55.20;96545.59;5096656;28;20195;-86
2024/03/22 03:23:15;;;;;;;2.43;2.23;;;;;;;4.12;54.13;96560.75;5096491;28;20593;-85
2024/03/22 03:25:54;;;;;;;1.63;1.53;;;;;;;4.25;54.35;96557.72;5114195;28;20259;-85
2024/03/22 03:28:27;;;;;;;1.80;1.70;;;;;;;4.13;53.91;96555.22;5114987;28;20285;-85
2024/03/22 03:30:58;;;;;;;2.40;2.20;;;;;;;3.92;54.53;96540.22;5114498;28;20611;-85
2024/03/22 03:34:03;;;;;;;1.93;1.73;;;;;;;4.08;54.67;96573.59;5096362;28;20206;-85
2024/03/22 03:36:40;;;;;;;2.60;1.90;;;;;;;3.76;55.32;96573.47;5109858;28;20220;-86
2024/03/22 03:39:31;;;;;;;1.87;1.77;;;;;;;3.60;55.59;96579.53;5093460;28;20207;-85
2024/03/22 03:42:00;;;;;;;2.20;2.00;;;;;;;3.46;55.98;96591.44;5092665;28;20234;-84
2024/03/22 03:44:55;;;;;;;3.60;2.37;;;;;;;3.08;58.20;96601.63;5091666;28;20624;-84
2024/03/22 03:47:23;;;;;;;2.50;2.30;;;;;;;3.04;57.46;96547.91;5093959;28;20628;-81
2024/03/22 03:53:40;;;;;;;3.50;3.20;;;;;;;3.74;56.51;96601.06;5091899;28;20208;-85
2024/03/22 04:02:55;;;;;;;2.97;2.07;;;;;;;3.92;56.76;96608.69;5083866;28;20235;-86
2024/03/22 04:05:56;;;;;;;2.57;2.37;;;;;;;3.63;57.39;96610.63;5075108;28;20231;-85
2024/03/22 04:08:30;;;;;;;2.37;2.17;;;;;;;3.62;57.16;96609.03;5011733;28;20286;-84
2024/03/22 04:11:02;;;;;;;2.33;2.03;;;;;;;3.60;57.18;96590.88;5010879;28;20203;-84
2024/03/22 04:13:44;;;;;;;2.50;2.03;;;;;;;3.64;56.49;96599.88;5012494;28;20294;-85
2024/03/22 04:16:19;;;;;;;2.00;1.80;;;;;;;3.65;57.09;96613.84;5010613;28;20306;-85
2024/03/22 04:19:04;;;;;;;2.00;1.80;;;;;;;3.58;57.67;96629.78;5072613;28;20199;-86
2024/03/22 04:21:36;;;;;;;2.10;1.90;;;;;;;3.76;57.45;96618.22;5093606;28;20560;-85
2024/03/22 04:24:24;;;;;;;2.13;1.93;;;;;;;3.90;57.22;96637.09;5092582;28;20223;-84
2024/03/22 04:26:50;;;;;;;2.57;2.37;;;;;;;3.67;57.88;96635.44;5092727;28;20291;-82
2024/03/22 04:29:27;;;;;;;4.20;1.73;;;;;;;3.75;56.73;96648.19;5092806;28;20234;-88
2024/03/22 04:31:55;;;;;;;2.70;2.17;;;;;;;3.63;57.41;96637.75;5091817;28;20192;-86
2024/03/22 04:34:43;;;;;;;4.33;3.63;;;;;;;3.71;57.10;96646.28;5091137;28;20251;-86
2024/03/22 04:37:28;;;;;;;2.37;2.17;;;;;;;3.66;57.27;96637.28;5099810;28;20682;-86
2024/03/22 04:40:38;;;;;;;3.43;2.00;;;;;;;3.68;55.87;96656.25;5093189;28;20203;-86
2024/03/22 04:43:39;;;;;;;1.87;1.77;;;;;;;3.40;56.82;96646.59;5112094;28;20219;-86
2024/03/22 04:46:12;;;;;;;1.87;1.77;;;;;;;3.59;56.69;96662.94;5109021;28;20198;-85
2024/03/22 04:48:51;;;;;;;2.40;1.70;;;;;;;3.78;57.07;96673.25;5077671;28;20734;-79
2024/03/22 04:51:53;;;;;;;1.77;1.67;;;;;;;3.46;56.54;96665.13;5087128;28;20200;-87
2024/03/22 04:54:25;;;;;;;1.87;1.70;;;;;;;3.42;56.52;96680.56;5074484;28;20206;-87
2024/03/22 04:56:54;;;;;;;2.03;1.83;;;;;;;3.35;56.34;96674.66;5091525;28;20262;-88
2024/03/22 04:59:26;;;;;;;1.60;1.50;;;;;;;3.25;56.96;96667.38;5091705;28;20200;-88
2024/03/22 05:02:07;;;;;;;1.73;1.63;;;;;;;3.33;56.45;96667.03;5091942;28;20196;-87
2024/03/22 05:05:01;;;;;;;1.63;1.53;;;;;;;3.63;54.87;96677.22;5074037;28;20238;-87
2024/03/22 05:11:11;;;;;;;2.00;1.87;;;;;;;3.74;53.81;96680.81;5090626;28;20667;-87
2024/03/22 05:13:39;;;;;;;1.60;1.50;;;;;;;3.30;52.40;96601.72;5099064;27;20207;-87
2024/03/22 05:16:11;;;;;;;1.90;1.67;;;;;;;3.85;51.62;96673.88;5121467;27;21291;-88
2024/03/22 05:18:43;;;;;;;1.73;1.63;;;;;;;3.85;51.40;96679.94;5118661;27;20199;-88
2024/03/22 05:24:25;;;;;;;1.63;1.53;;;;;;;4.11;50.22;96686.38;5118827;27;20238;-91
2024/03/22 05:37:45;;;;;;;1.60;1.50;;;;;;;4.35;48.88;96670.38;5123746;28;20249;-94
2024/03/22 05:40:58;;;;;;;1.70;1.60;;;;;;;4.41;48.14;96682.53;5109780;28;20219;-90
2024/03/22 05:43:28;;;;;;;1.87;1.50;;;;;;;4.50;48.32;96694.28;5111465;28;20227;-89
2024/03/22 05:49:19;;;;;;;1.70;1.60;;;;;;;4.69;48.22;96694.78;5088324;28;20572;-93
2024/03/22 05:54:44;;;;;;;1.40;1.30;;;;;;;4.89;47.55;96710.03;5110493;28;20227;-91
2024/03/22 05:57:14;;;;;;;1.40;1.30;;;;;;;4.90;47.28;96701.88;5104587;28;20630;-88
2024/03/22 05:59:41;;;;;;;1.67;1.57;;;;;;;5.01;47.12;96723.88;5111918;28;20195;-87
2024/03/22 06:02:08;;;;;;;1.80;1.70;;;;;;;5.22;47.45;96732.03;5111252;28;20203;-88
2024/03/22 06:04:41;;;;;;;1.83;1.73;;;;;;;5.00;46.56;96681.94;5111563;28;20247;-89
2024/03/22 06:07:14;;;;;;;1.60;1.50;;;;;;;4.95;47.22;96726.72;5116575;28;20575;-88
2024/03/22 06:09:46;;;;;;;1.30;1.30;;;;;;;5.11;47.78;96697.63;5114021;28;20234;-89
2024/03/22 06:12:22;;;;;;;1.40;1.30;;;;;;;5.50;46.47;96738.91;5116169;28;20204;-90
2024/03/22 06:15:06;;;;;;;1.50;1.40;;;;;;;5.67;45.61;96728.25;5115060;28;20199;-88
2024/03/22 06:17:42;;;;;;;1.60;1.50;;;;;;;5.59;45.58;96698.59;5114254;28;20679;-88
2024/03/22 06:20:24;;;;;;;1.40;1.30;;;;;;;5.69;44.89;96718.22;5108064;28;20295;-89
2024/03/22 06:23:08;;;;;;;1.70;1.60;;;;;;;5.74;45.45;96736.75;5113804;27;20241;-90
2024/03/22 06:26:03;;;;;;;1.40;1.30;;;;;;;5.68;45.67;96740.38;5116193;28;20206;-89
2024/03/22 06:31:33;;;;;;;1.90;1.40;;;;;;;5.71;44.96;96747.81;5108860;28;20222;-89
2024/03/22 06:34:02;;;;;;;1.80;1.70;;;;;;;5.37;44.84;96690.75;5115023;28;20627;-89
2024/03/22 06:36:50;;;;;;;1.70;1.60;;;;;;;5.57;44.56;96716.53;5103216;28;20646;-89
2024/03/22 06:42:11;;;;;;;1.50;1.37;;;;;;;5.98;44.07;96713.47;5113185;28;20286;-91
2024/03/22 06:44:43;;;;;;;3.33;1.63;;;;;;;6.08;42.90;96730.19;5115243;28;20234;-90
2024/03/22 06:47:40;;;;;;;3.57;1.70;;;;;;;6.18;42.62;96713.59;5120881;28;20565;-93
2024/03/22 06:50:14;;;;;;;1.40;1.30;;;;;;;6.24;41.67;96693.31;5113227;27;20194;-88
2024/03/22 06:52:41;;;;;;;1.40;1.30;;;;;;;6.53;41.65;96717.50;5122897;27;20187;-87
2024/03/22 06:55:07;;;;;;;1.80;1.70;;;;;;;6.81;40.92;96724.25;5120184;27;20207;-87
2024/03/22 06:57:34;;;;;;;3.10;1.13;;;;;;;6.90;40.79;96729.88;5116254;27;20200;-89
2024/03/22 07:00:01;;;;;;;1.10;1.10;;;;;;;7.05;39.88;96728.06;5115088;28;20208;-91
2024/03/22 07:02:33;;;;;;;1.27;1.20;;;;;;;7.05;38.61;96738.66;5114929;28;20261;-92
2024/03/22 07:05:01;;;;;;;1.60;1.50;;;;;;;7.25;39.02;96734.47;5116969;28;20258;-93
2024/03/22 07:10:11;;;;;;;1.30;1.27;;;;;;;7.49;38.09;96717.03;5113887;28;20196;-94
2024/03/22 07:12:37;;;;;;;1.87;1.77;;;;;;;7.80;37.80;96749.66;5124154;27;20206;-91
2024/03/22 07:15:07;;;;;;;1.50;1.40;;;;;;;8.24;37.61;96733.22;5115757;28;20269;-88
2024/03/22 07:17:34;;;;;;;1.70;1.60;;;;;;;8.29;36.12;96741.19;5113362;28;20256;-90
2024/03/22 07:20:01;;;;;;;1.60;1.50;;;;;;;7.97;35.81;96733.50;5114695;28;20203;-88
2024/03/22 07:22:32;;;;;;;1.30;1.20;;;;;;;7.35;37.39;96700.84;5114742;28;20219;-88
2024/03/22 07:24:59;;;;;;;4.20;1.30;;;;;;;8.13;35.70;96723.72;5114274;28;20227;-90
2024/03/22 07:27:29;;;;;;;1.70;1.60;;;;;;;8.45;35.87;96731.38;5115692;28;20210;-91
2024/03/22 07:29:56;;;;;;;3.30;2.93;;;;;;;8.41;35.69;96740.94;5114423;28;20214;-88
2024/03/22 07:32:22;;;;;;;2.90;2.03;;;;;;;8.32;35.96;96718.63;5114637;28;20204;-89
2024/03/22 07:34:49;;;;;;;2.10;1.97;;;;;;;9.07;35.36;96730.13;5114327;28;20204;-89
2024/03/22 07:37:15;;;;;;;81.60;26.17;;;;;;;8.97;35.10;96726.72;5113176;28;20252;-87
2024/03/22 07:39:43;;;;;;;64.03;24.43;;;;;;;9.31;34.51;96737.44;5114060;28;20207;-87
2024/03/22 07:42:09;;;;;;;15.13;10.07;;;;;;;9.49;33.23;96738.69;5113756;28;20211;-87
2024/03/22 07:44:36;;;;;;;12.73;8.70;;;;;;;9.05;32.55;96732.25;5104891;28;20220;-93
2024/03/22 07:47:01;;;;;;;15.83;14.30;;;;;;;9.39;34.19;96731.56;5107825;28;20203;-85
2024/03/22 07:49:28;;;;;;;7.80;7.20;;;;;;;10.17;32.89;96732.59;5113325;28;20543;-86
2024/03/22 07:51:54;;;;;;;1.43;1.37;;;;;;;10.08;32.00;96743.03;5113625;28;20195;-87
2024/03/22 07:54:21;;;;;;;1.43;1.10;;;;;;;10.10;31.81;96732.13;5114216;28;20195;-91
2024/03/22 07:56:48;;;;;;;7.37;4.40;;;;;;;10.17;31.51;96700.69;5123796;27;20282;-95
2024/03/22 07:59:16;;;;;;;4.47;3.63;;;;;;;10.17;32.50;96737.91;5117615;27;20294;-88
2024/03/22 08:01:42;;;;;;;3.30;3.00;;;;;;;9.95;30.99;96696.63;5113938;28;20203;-87
2024/03/22 08:04:09;;;;;;;4.10;1.80;;;;;;;10.51;30.93;96741.34;5113793;28;20223;-92
2024/03/22 08:06:35;;;;;;;5.20;1.97;;;;;;;10.56;31.52;96740.50;5114447;28;20199;-91
2024/03/22 08:09:02;;;;;;;2.10;1.90;;;;;;;10.70;31.10;96733.44;5114120;28;20650;-88
2024/03/22 08:11:28;;;;;;;1.60;1.27;;;;;;;10.66;30.08;96731.63;5113555;28;20195;-92
2024/03/22 08:14:02;;;;;;;1.10;1.10;;;;;;;11.02;27.77;96721.34;5114178;28;20202;-87
2024/03/22 08:16:28;;;;;;;1.97;1.20;;;;;;;10.94;27.69;96682.84;5113549;28;20195;-89
2024/03/22 08:18:54;;;;;;;3.00;1.67;;;;;;;11.22;28.25;96712.31;5114078;28;20210;-89
2024/03/22 08:21:20;;;;;;;1.83;1.40;;;;;;;11.79;26.48;96734.44;5113470;28;20259;-89
2024/03/22 08:23:47;;;;;;;2.77;1.40;;;;;;;11.87;26.24;96728.47;5113213;28;20669;-90
2024/03/22 08:26:13;;;;;;;1.10;1.10;;;;;;;11.27;26.45;96706.94;5113868;28;20226;-91
2024/03/22 08:28:39;;;;;;;2.10;1.80;;;;;;;11.73;27.26;96732.91;5113573;28;20230;-92
2024/03/22 08:31:07;;;;;;;1.73;1.63;;;;;;;11.87;27.43;96739.16;5112867;28;20204;-88
2024/03/22 08:33:33;;;;;;;1.40;1.30;;;;;;;11.82;27.06;96704.53;5114158;28;20192;-87
2024/03/22 08:36:01;;;;;;;1.13;1.03;;;;;;;11.94;25.34;96741.44;5113306;28;20188;-87
2024/03/22 08:38:28;;;;;;;1.50;1.40;;;;;;;11.99;24.53;96741.38;5114338;28;20243;-88
2024/03/22 08:40:53;;;;;;;1.47;1.37;;;;;;;12.38;25.13;96726.84;5120437;28;20202;-94
2024/03/22 08:43:22;;;;;;;1.40;1.30;;;;;;;12.34;26.02;96740.00;5114694;28;20580;-94
2024/03/22 08:45:48;;;;;;;1.40;1.30;;;;;;;12.55;24.44;96742.31;5114967;28;20662;-88
2024/03/22 08:48:17;;;;;;;1.10;1.10;;;;;;;13.35;23.78;96731.13;5112859;28;20196;-92
2024/03/22 08:50:43;;;;;;;1.57;1.40;;;;;;;13.09;24.73;96703.34;5104255;28;20280;-89
2024/03/22 08:53:10;;;;;;;1.27;1.23;;;;;;;13.59;24.87;96732.78;5113001;28;20203;-82
2024/03/22 08:55:36;;;;;;;1.50;1.40;;;;;;;13.94;23.95;96728.50;5111504;28;20229;-83
2024/03/22 08:58:03;;;;;;;2.30;1.23;;;;;;;13.90;23.50;96736.34;5111425;28;20195;-82
2024/03/22 09:00:29;;;;;;;1.27;1.10;;;;;;;13.97;23.21;96735.13;5111054;28;20653;-83
2024/03/22 09:02:56;;;;;;;1.50;1.40;;;;;;;14.07;23.81;96724.19;5111940;28;20198;-83
2024/03/22 09:05:24;;;;;;;3.50;2.00;;;;;;;14.57;22.24;96732.06;5110974;28;20264;-83
2024/03/22 09:07:52;;;;;;;1.50;1.33;;;;;;;13.92;22.61;96712.75;5111765;28;20199;-89
2024/03/22 09:10:18;;;;;;;1.20;1.10;;;;;;;15.11;20.18;96712.09;5111737;28;20662;-88
2024/03/22 09:12:45;;;;;;;2.30;1.70;;;;;;;14.07;22.15;96740.25;5113706;28;20196;-89
2024/03/22 09:15:11;;;;;;;1.43;1.33;;;;;;;13.82;21.47;96699.63;5112197;28;20207;-87
2024/03/22 09:17:38;;;;;;;2.60;1.20;;;;;;;14.14;20.98;96706.59;5112090;28;20277;-88
2024/03/22 09:20:05;;;;;;;1.10;1.10;;;;;;;14.22;21.29;96699.72;5112740;28;20195;-87
2024/03/22 09:22:34;;;;;;;1.13;1.10;;;;;;;14.99;19.87;96729.88;5111774;28;20270;-87
2024/03/22 09:24:59;;;;;;;2.60;1.40;;;;;;;14.47;20.36;96726.94;5112741;28;20223;-88
2024/03/22 09:27:26;;;;;;;1.40;1.30;;;;;;;15.30;20.37;96719.09;5112051;28;20284;-87
2024/03/22 09:29:52;;;;;;;2.50;1.60;;;;;;;14.89;21.66;96714.88;5112187;28;20654;-86
2024/03/22 09:32:19;;;;;;;1.00;1.00;;;;;;;14.64;19.62;96689.56;5112390;28;20558;-87
2024/03/22 09:34:45;;;;;;;1.10;1.10;;;;;;;15.27;20.17;96730.44;5112189;28;20557;-89
2024/03/22 09:37:12;;;;;;;1.10;1.07;;;;;;;15.94;18.04;96723.88;5111560;28;20286;-86
2024/03/22 09:39:39;;;;;;;1.63;1.53;;;;;;;15.14;19.54;96719.53;5111141;28;20203;-86
2024/03/22 09:42:07;;;;;;;1.40;1.30;;;;;;;14.60;20.27;96713.50;5111599;28;20195;-86
2024/03/22 09:44:33;;;;;;;1.10;1.10;;;;;;;14.12;21.30;96729.41;5104993;28;20283;-88
2024/03/22 09:47:02;;;;;;;1.07;1.07;;;;;;;14.41;20.59;96678.09;5111941;28;20188;-86
2024/03/22 09:49:31;;;;;;;2.93;1.60;;;;;;;15.04;19.63;96717.13;5111145;28;20202;-86
2024/03/22 09:51:58;;;;;;;1.30;1.10;;;;;;;15.31;19.01;96723.34;5112452;28;20646;-87
2024/03/22 09:54:25;;;;;;;1.00;1.00;;;;;;;14.61;19.94;96676.78;5112989;28;20203;-89
2024/03/22 09:56:54;;;;;;;1.30;1.20;;;;;;;15.30;19.01;96706.47;5111932;28;20204;-86
2024/03/22 09:59:21;;;;;;;2.93;1.23;;;;;;;16.59;18.90;96723.59;5111891;28;20674;-87
2024/03/22 10:01:49;;;;;;;1.10;1.10;;;;;;;15.68;20.42;96699.72;5111989;28;20193;-88
2024/03/22 10:04:14;;;;;;;1.20;1.10;;;;;;;16.10;20.14;96688.16;5111361;28;20277;-84
2024/03/22 10:06:41;;;;;;;0.97;0.97;;;;;;;15.33;20.53;96694.28;5111509;28;20203;-84
2024/03/22 10:09:08;;;;;;;1.13;1.13;;;;;;;15.94;19.33;96694.34;5110611;28;20203;-84
2024/03/22 10:11:35;;;;;;;1.10;1.10;;;;;;;15.16;20.48;96660.22;5110876;28;21182;-83
2024/03/22 10:14:04;;;;;;;1.43;1.30;;;;;;;16.10;19.43;96698.09;5110504;28;20206;-84
2024/03/22 10:16:35;;;;;;;1.17;1.07;;;;;;;16.05;17.95;96695.59;5110616;28;20636;-84
2024/03/22 10:19:01;;;;;;;1.17;1.10;;;;;;;15.03;19.40;96691.41;5112378;28;20205;-94
2024/03/22 10:21:29;;;;;;;1.10;1.10;;;;;;;14.65;20.81;96696.50;5112427;28;20211;-89
2024/03/22 10:23:54;;;;;;;1.10;1.10;;;;;;;14.70;20.88;96650.00;5111797;28;20257;-86
2024/03/22 10:26:21;;;;;;;1.10;1.00;;;;;;;15.65;18.29;96624.13;5111411;28;20270;-86
2024/03/22 10:28:47;;;;;;;1.30;1.20;;;;;;;16.59;17.62;96655.63;5111498;28;20206;-89
2024/03/22 10:31:16;;;;;;;1.60;1.50;;;;;;;17.18;17.01;96684.44;5111670;28;23121;-88
2024/03/22 10:33:44;;;;;;;3.83;1.30;;;;;;;17.13;17.38;96685.44;5111419;28;20204;-84
2024/03/22 10:36:11;;;;;;;1.00;1.00;;;;;;;16.82;16.99;96681.16;5110286;28;20230;-90
2024/03/22 10:38:39;;;;;;;0.87;0.87;;;;;;;16.96;17.54;96677.44;5112006;28;20244;-84
2024/03/22 10:41:06;;;;;;;0.97;0.93;;;;;;;16.75;17.71;96677.41;5109956;28;20227;-84
2024/03/22 10:43:32;;;;;;;1.13;1.10;;;;;;;16.43;16.66;96641.94;5110645;28;20265;-90
2024/03/22 10:46:06;;;;;;;1.20;1.20;;;;;;;16.91;17.76;96661.50;5111949;28;20234;-90
2024/03/22 10:48:33;;;;;;;3.10;1.00;;;;;;;16.04;18.09;96643.00;5110795;28;20286;-87
2024/03/22 10:51:02;;;;;;;1.13;1.13;;;;;;;16.14;19.32;96664.91;5094084;28;20198;-88
2024/03/22 10:53:31;;;;;;;2.23;1.07;;;;;;;16.45;18.67;96663.88;5115432;28;20198;-89
2024/03/22 10:56:00;;;;;;;0.93;0.93;;;;;;;16.16;18.68;96612.81;5115404;28;20206;-87
2024/03/22 10:58:26;;;;;;;1.37;1.27;;;;;;;16.60;18.26;96641.06;5114898;28;20243;-86
2024/03/22 11:00:54;;;;;;;1.80;1.57;;;;;;;16.14;20.84;96640.75;5114373;28;20688;-87
2024/03/22 11:03:20;;;;;;;1.77;1.23;;;;;;;16.75;18.95;96635.19;5114390;28;20217;-90
2024/03/22 11:05:50;;;;;;;1.03;1.00;;;;;;;17.35;17.47;96627.84;5114979;28;20219;-84
2024/03/22 11:08:24;;;;;;;1.70;1.60;;;;;;;16.74;18.47;96644.34;5113862;28;20675;-84
2024/03/22 11:10:51;;;;;;;1.00;1.00;;;;;;;16.32;18.75;96601.22;5112296;27;20198;-83
2024/03/22 11:13:18;;;;;;;1.27;1.17;;;;;;;16.42;18.96;96636.88;5114618;28;20207;-82
2024/03/22 11:15:45;;;;;;;1.20;1.13;;;;;;;16.62;18.17;96569.78;5114393;28;20226;-82
2024/03/22 11:18:11;;;;;;;1.20;1.20;;;;;;;16.44;18.47;96630.06;5114441;28;20283;-82
2024/03/22 11:20:38;;;;;;;1.07;1.07;;;;;;;15.70;19.03;96625.84;5113293;28;20700;-82
2024/03/22 11:23:05;;;;;;;1.10;1.00;;;;;;;16.78;17.87;96631.06;5113117;28;20204;-82
2024/03/22 11:25:32;;;;;;;1.87;1.67;;;;;;;16.75;18.55;96618.25;5113359;28;20305;-82
2024/03/22 11:28:00;;;;;;;14.00;7.07;;;;;;;16.47;19.33;96591.03;5112995;28;20195;-82
2024/03/22 11:30:27;;;;;;;1.90;1.70;;;;;;;15.90;19.51;96609.06;5113564;28;20285;-82
2024/03/22 11:32:54;;;;;;;1.10;1.10;;;;;;;15.56;20.21;96617.94;5112387;27;20203;-82
2024/03/22 11:35:21;;;;;;;2.93;2.60;;;;;;;16.60;18.14;96611.50;5116131;27;20752;-82
2024/03/22 11:37:46;;;;;;;2.97;1.90;;;;;;;16.26;19.60;96601.69;5120264;27;20218;-82
2024/03/22 11:40:15;;;;;;;4.50;1.33;;;;;;;15.84;19.07;96556.69;5122540;27;20266;-82
2024/03/22 11:42:44;;;;;;;1.20;1.10;;;;;;;16.34;18.22;96604.38;5122225;27;20195;-82
2024/03/22 11:45:13;;;;;;;1.23;1.13;;;;;;;16.46;19.03;96590.25;5127634;27;20229;-85
2024/03/22 11:47:38;;;;;;;2.20;1.50;;;;;;;16.27;19.70;96604.09;5104833;28;20213;-85
2024/03/22 11:50:06;;;;;;;2.67;1.30;;;;;;;16.11;20.18;96603.81;5113078;28;20202;-85
2024/03/22 11:52:32;;;;;;;1.20;1.10;;;;;;;15.93;20.32;96601.50;5112888;28;20192;-85
2024/03/22 11:54:59;;;;;;;1.17;1.10;;;;;;;16.55;19.25;96598.28;5116728;27;20310;-85
2024/03/22 11:57:26;;;;;;;4.27;2.13;;;;;;;16.61;18.60;96589.72;5131721;27;20194;-85
2024/03/22 11:59:53;;;;;;;5.70;2.00;;;;;;;16.28;19.51;96588.75;5114546;27;20209;-85
2024/03/22 12:02:19;;;;;;;1.17;1.10;;;;;;;16.17;20.30;96590.22;5112732;28;20205;-85
2024/03/22 12:04:47;;;;;;;2.57;1.40;;;;;;;16.55;20.03;96595.59;5112786;28;20230;-85
2024/03/22 12:07:14;;;;;;;3.80;1.50;;;;;;;14.99;20.06;96569.84;5112791;28;20199;-85
2024/03/22 12:09:42;;;;;;;1.70;1.60;;;;;;;16.12;20.26;96591.19;5114113;27;20196;-92
2024/03/22 12:12:10;;;;;;;1.53;1.40;;;;;;;16.77;20.02;96581.91;5125974;27;20208;-92
2024/03/22 12:14:38;;;;;;;2.57;1.40;;;;;;;16.58;19.08;96554.63;5131924;27;20306;-94
2024/03/22 12:17:04;;;;;;;1.40;1.30;;;;;;;16.18;19.73;96552.28;5114513;28;20712;-90
2024/03/22 12:19:31;;;;;;;1.47;1.37;;;;;;;16.78;19.56;96566.56;5113337;27;20207;-87
2024/03/22 12:21:57;;;;;;;5.23;1.90;;;;;;;16.92;20.40;96568.97;5123363;27;20734;-94
2024/03/22 12:24:24;;;;;;;1.17;1.13;;;;;;;16.85;18.79;96556.84;5114997;28;20214;-96
2024/03/22 12:26:50;;;;;;;5.37;1.60;;;;;;;16.85;19.29;96548.78;5113816;28;20200;-91
2024/03/22 12:29:18;;;;;;;1.67;1.57;;;;;;;15.95;18.18;96567.06;5114598;28;20203;-90
2024/03/22 12:31:45;;;;;;;1.67;1.50;;;;;;;16.27;20.41;96571.84;5114283;28;20199;-91
2024/03/22 12:34:12;;;;;;;1.80;1.70;;;;;;;16.05;20.63;96532.59;5122319;27;20214;-91
2024/03/22 12:36:38;;;;;;;3.23;1.47;;;;;;;16.62;19.96;96555.56;5114281;28;20199;-89
2024/03/22 12:39:06;;;;;;;1.97;1.83;;;;;;;15.68;18.86;96555.63;5113508;28;20280;-91
2024/03/22 12:41:33;;;;;;;1.40;1.30;;;;;;;14.18;21.48;96540.81;5113668;28;20198;-89
2024/03/22 12:43:59;;;;;;;1.60;1.50;;;;;;;15.10;20.59;96551.53;5114391;28;20265;-94
2024/03/22 12:46:27;;;;;;;1.67;1.27;;;;;;;15.41;21.70;96548.72;5114157;28;20203;-96
2024/03/22 12:48:55;;;;;;;1.40;1.30;;;;;;;14.78;20.19;96520.63;5113935;28;20693;-95
2024/03/22 12:51:21;;;;;;;2.60;2.40;;;;;;;15.49;21.31;96560.50;5115243;28;20203;-96
2024/03/22 12:53:48;;;;;;;1.70;1.60;;;;;;;15.89;21.10;96547.66;5115189;28;20203;-86
2024/03/22 12:56:13;;;;;;;1.40;1.30;;;;;;;15.93;21.12;96518.28;5105549;27;20221;-95